Details From SBRP - Leite Lopes
To SBUL - Ten Cel Av Cesar Bombonato
Flight Number -
Tags Routegen Generated
Created
Modified
Stats Distance 137 nm / 255 km
Max Altitude 500 ft / 152 m
Waypoints 7
Social Downloads 4
Likes 0
Share VATSIM

Download

Looking for another format? Having issues loading an existing format? Contact us
Advertisement - Login to hide

Notes

Departing runway 34 SBRP. Arriving runway 2 SBUL.

Route

SBRP -21.06_-047.80 -20.29_-047.97 -19.07_-048.24 -19.02_-048.26 -18.96_-048.26 SBUL

ID Type Via Altitude Latitude Longitude Leg Dist Tot Dist Heading (true) Name
O SBRP APT - 0 ft / 0 m -21.12508˚ -47.77709˚ - 0 nm - -
-21.06_-047.80 LATLON - 500 ft / 152 m -21.05573˚ -47.79924˚ 4 nm 4 nm 343° / 343° -
-20.29_-047.97 LATLON - 500 ft / 152 m -20.29432˚ -47.96924˚ 46 nm 51 nm 348° / 348° -
-19.07_-048.24 LATLON - 500 ft / 152 m -19.07086˚ -48.24287˚ 75 nm 126 nm 348° / 348° -
-19.02_-048.26 LATLON - 500 ft / 152 m -19.01563˚ -48.26124˚ 3 nm 129 nm 343° / 343° -
-18.96_-048.26 LATLON - 500 ft / 152 m -18.95779˚ -48.25851˚ 3 nm 133 nm 3° / 3° -
O SBUL APT - 0 ft / 0 m -18.89096˚ -48.22916˚ 4 nm 137 nm 23° / 23° -

Altitude Profile

Advertisement - Login to hide

SBRP

Details ICAO SBRP (RAO)
Name LEITE LOPES
Region Brazil
Timezone America/Sao_Paulo (UTC-2.0)
Stats Elevation 1,802 ft / 549 m (AMSL)
Location -21.134166° -47.774189°
Runways 1
Magnetic Variation 21.204° W

METAR

SBRP 151800Z 02012KT 9999 4000S TS SHRA BKN040 FEW045CB 29/18 Q 1013

Decode

TAF

TAF SBRP 150808Z 1512/1612 08008KT CAVOK TX31/1518Z TN21/1609Z BECMG 1514/1516 SCT040 BECMG 1519/1521 11005KT CAVOK RMK PGF

Decode

Departure Runways

ID Width Length Bearing (true) Bearing (mag) Surface Threshold Offset Overrun Length
18 115 ft / 35 m 6,918 ft / 2,109 m 163.40° 184.60° Asphalt 657 ft / 200 m 0 ft / 0 m
36 115 ft / 35 m 6,918 ft / 2,109 m 343.40° 4.60° Asphalt 328 ft / 100 m 0 ft / 0 m

SBUL

Details ICAO SBUL (UDI)
Name TEN CEL AV CESAR BOMBONATO
Region Brazil
Timezone America/Sao_Paulo (UTC-2.0)
Stats Elevation 3,094 ft / 943 m (AMSL)
Location -18.882843° -48.225593°
Runways 1
Magnetic Variation 21.258° W

METAR

Not found

TAF

TAF SBUL 150808Z 1512/1524 05010KT 9999 BKN013TN21/1512Z TX27/1518Z BECMG 1513/1515 BKN025 BECMG 1515/1517 07005KT SHRA SCT040 FEW050TCU BECMG 1521/1523 CAVOK RMK PGF

Decode

Destination Runways

ID Width Length Bearing (true) Bearing (mag) Surface Threshold Offset Overrun Length
04 148 ft / 45 m 6,418 ft / 1,956 m 22.56° 43.82° Asphalt 0 ft / 0 m 0 ft / 0 m
22 148 ft / 45 m 6,418 ft / 1,956 m 202.55° 223.81° Asphalt 0 ft / 0 m 0 ft / 0 m